sensor_id;sensor_type;location;lat;lon;timestamp;pressure;altitude;pressure_sealevel;temperature;humidity
15694;BME280;7947;48.834;9.132;2023-04-23T00:02:08;97545.06;;;15.68;63.56
15694;BME280;7947;48.834;9.132;2023-04-23T00:05:12;97547.09;;;15.79;62.88
15694;BME280;7947;48.834;9.132;2023-04-23T00:08:19;97542.78;;;15.87;61.88
15694;BME280;7947;48.834;9.132;2023-04-23T00:11:22;97549.81;;;15.79;62.57
15694;BME280;7947;48.834;9.132;2023-04-23T00:14:25;97548.53;;;15.77;63.01
15694;BME280;7947;48.834;9.132;2023-04-23T00:17:28;97550.72;;;15.83;62.24
15694;BME280;7947;48.834;9.132;2023-04-23T00:20:31;97547.88;;;15.88;62.05
15694;BME280;7947;48.834;9.132;2023-04-23T00:23:37;97544.97;;;15.93;62.13
15694;BME280;7947;48.834;9.132;2023-04-23T00:26:40;97557.75;;;15.84;62.51
15694;BME280;7947;48.834;9.132;2023-04-23T00:29:43;97541.38;;;15.81;63.07
15694;BME280;7947;48.834;9.132;2023-04-23T00:32:46;97544.41;;;15.79;62.79
15694;BME280;7947;48.834;9.132;2023-04-23T00:35:49;97552.84;;;15.69;64.33
15694;BME280;7947;48.834;9.132;2023-04-23T00:38:54;97552.53;;;15.71;65.18
15694;BME280;7947;48.834;9.132;2023-04-23T00:41:57;97556.66;;;15.68;65.24
15694;BME280;7947;48.834;9.132;2023-04-23T00:45:00;97562.69;;;15.74;65.00
15694;BME280;7947;48.834;9.132;2023-04-23T00:48:04;97566.38;;;15.69;65.11
15694;BME280;7947;48.834;9.132;2023-04-23T00:51:10;97574.16;;;15.62;66.24
15694;BME280;7947;48.834;9.132;2023-04-23T00:54:14;97566.22;;;15.57;67.34
15694;BME280;7947;48.834;9.132;2023-04-23T00:57:17;97570.06;;;15.56;66.65
15694;BME280;7947;48.834;9.132;2023-04-23T01:00:20;97570.06;;;15.56;66.96
15694;BME280;7947;48.834;9.132;2023-04-23T01:03:23;97577.97;;;15.53;67.11
15694;BME280;7947;48.834;9.132;2023-04-23T01:06:28;97576.88;;;15.54;66.66
15694;BME280;7947;48.834;9.132;2023-04-23T01:09:33;97573.09;;;15.46;66.75
15694;BME280;7947;48.834;9.132;2023-04-23T01:12:36;97587.03;;;15.39;67.71
15694;BME280;7947;48.834;9.132;2023-04-23T01:15:39;97573.69;;;15.43;67.15
15694;BME280;7947;48.834;9.132;2023-04-23T01:18:42;97575.47;;;15.48;67.43
15694;BME280;7947;48.834;9.132;2023-04-23T01:21:46;97582.44;;;15.40;67.37
15694;BME280;7947;48.834;9.132;2023-04-23T01:24:52;97587.66;;;15.28;67.95
15694;BME280;7947;48.834;9.132;2023-04-23T01:27:55;97591.50;;;15.27;67.68
15694;BME280;7947;48.834;9.132;2023-04-23T01:30:59;97595.94;;;15.23;68.46
15694;BME280;7947;48.834;9.132;2023-04-23T01:34:03;97586.41;;;15.17;68.70
15694;BME280;7947;48.834;9.132;2023-04-23T01:37:06;97588.31;;;15.25;68.90
15694;BME280;7947;48.834;9.132;2023-04-23T01:40:11;97588.78;;;15.18;69.40
15694;BME280;7947;48.834;9.132;2023-04-23T01:43:14;97596.38;;;15.08;70.10
15694;BME280;7947;48.834;9.132;2023-04-23T01:46:19;97602.44;;;15.05;70.90
15694;BME280;7947;48.834;9.132;2023-04-23T01:49:22;97600.03;;;14.95;71.16
15694;BME280;7947;48.834;9.132;2023-04-23T01:52:25;97588.59;;;14.89;71.58
15694;BME280;7947;48.834;9.132;2023-04-23T01:55:30;97596.66;;;14.81;72.04
15694;BME280;7947;48.834;9.132;2023-04-23T01:58:33;97602.38;;;14.71;72.54
15694;BME280;7947;48.834;9.132;2023-04-23T02:01:40;97603.63;;;14.65;73.12
15694;BME280;7947;48.834;9.132;2023-04-23T02:04:45;97603.47;;;14.61;73.48
15694;BME280;7947;48.834;9.132;2023-04-23T02:07:50;97598.34;;;14.60;74.04
15694;BME280;7947;48.834;9.132;2023-04-23T02:10:54;97612.97;;;14.59;74.76
15694;BME280;7947;48.834;9.132;2023-04-23T02:13:57;97607.56;;;14.59;75.01
15694;BME280;7947;48.834;9.132;2023-04-23T02:17:00;97617.72;;;14.53;75.49
15694;BME280;7947;48.834;9.132;2023-04-23T02:20:04;97627.22;;;14.51;75.91
15694;BME280;7947;48.834;9.132;2023-04-23T02:23:08;97625.16;;;14.48;76.86
15694;BME280;7947;48.834;9.132;2023-04-23T02:26:12;97625.28;;;14.42;77.20
15694;BME280;7947;48.834;9.132;2023-04-23T02:29:15;97625.44;;;14.37;77.82
15694;BME280;7947;48.834;9.132;2023-04-23T02:32:18;97628.56;;;14.31;79.19
15694;BME280;7947;48.834;9.132;2023-04-23T02:35:21;97629.38;;;14.31;80.60
15694;BME280;7947;48.834;9.132;2023-04-23T02:38:24;97621.28;;;14.31;81.85
15694;BME280;7947;48.834;9.132;2023-04-23T02:41:28;97619.78;;;14.25;82.52
15694;BME280;7947;48.834;9.132;2023-04-23T02:44:31;97618.97;;;14.25;83.37
15694;BME280;7947;48.834;9.132;2023-04-23T02:47:34;97611.63;;;14.17;83.96
15694;BME280;7947;48.834;9.132;2023-04-23T02:50:37;97610.69;;;14.13;84.88
15694;BME280;7947;48.834;9.132;2023-04-23T02:53:40;97602.13;;;14.11;86.02
15694;BME280;7947;48.834;9.132;2023-04-23T02:56:44;97602.59;;;14.13;86.16
15694;BME280;7947;48.834;9.132;2023-04-23T02:59:47;97599.91;;;14.13;86.57
15694;BME280;7947;48.834;9.132;2023-04-23T03:02:50;97603.84;;;14.07;86.76
15694;BME280;7947;48.834;9.132;2023-04-23T03:05:53;97611.88;;;13.98;87.21
15694;BME280;7947;48.834;9.132;2023-04-23T03:08:56;97612.28;;;13.92;86.36
15694;BME280;7947;48.834;9.132;2023-04-23T03:12:00;97616.38;;;13.81;86.63
15694;BME280;7947;48.834;9.132;2023-04-23T03:15:04;97616.50;;;13.76;88.13
15694;BME280;7947;48.834;9.132;2023-04-23T03:18:07;97614.53;;;13.68;88.51
15694;BME280;7947;48.834;9.132;2023-04-23T03:21:10;97616.19;;;13.55;89.16
15694;BME280;7947;48.834;9.132;2023-04-23T03:24:15;97616.31;;;13.50;90.17
15694;BME280;7947;48.834;9.132;2023-04-23T03:27:19;97602.72;;;13.55;90.06
15694;BME280;7947;48.834;9.132;2023-04-23T03:30:22;97612.81;;;13.49;90.45
15694;BME280;7947;48.834;9.132;2023-04-23T03:33:25;97597.31;;;13.55;90.25
15694;BME280;7947;48.834;9.132;2023-04-23T03:36:28;97602.78;;;13.64;89.77
15694;BME280;7947;48.834;9.132;2023-04-23T03:39:31;97602.63;;;13.69;89.34
15694;BME280;7947;48.834;9.132;2023-04-23T03:42:35;97608.66;;;13.66;89.48
15694;BME280;7947;48.834;9.132;2023-04-23T03:45:38;97608.09;;;13.55;89.32
15694;BME280;7947;48.834;9.132;2023-04-23T03:48:40;97599.53;;;13.53;89.75
15694;BME280;7947;48.834;9.132;2023-04-23T03:51:43;97602.44;;;13.56;89.73
15694;BME280;7947;48.834;9.132;2023-04-23T03:54:46;97597.59;;;13.45;89.32
15694;BME280;7947;48.834;9.132;2023-04-23T03:57:50;97596.28;;;13.42;89.57
15694;BME280;7947;48.834;9.132;2023-04-23T04:00:53;97602.34;;;13.48;89.60
15694;BME280;7947;48.834;9.132;2023-04-23T04:03:56;97614.72;;;13.49;89.77
15694;BME280;7947;48.834;9.132;2023-04-23T04:06:59;97614.53;;;13.45;89.67
15694;BME280;7947;48.834;9.132;2023-04-23T04:10:02;97625.75;;;13.39;89.70
15694;BME280;7947;48.834;9.132;2023-04-23T04:13:06;97624.94;;;13.38;89.87
15694;BME280;7947;48.834;9.132;2023-04-23T04:16:09;97623.81;;;13.39;89.09
15694;BME280;7947;48.834;9.132;2023-04-23T04:19:12;97616.38;;;13.36;88.35
15694;BME280;7947;48.834;9.132;2023-04-23T04:22:15;97616.59;;;13.26;88.40
15694;BME280;7947;48.834;9.132;2023-04-23T04:25:17;97627.31;;;13.18;88.33
15694;BME280;7947;48.834;9.132;2023-04-23T04:28:24;97625.69;;;13.17;87.90
15694;BME280;7947;48.834;9.132;2023-04-23T04:31:27;97630.22;;;13.08;87.04
15694;BME280;7947;48.834;9.132;2023-04-23T04:34:29;97634.38;;;13.00;86.17
15694;BME280;7947;48.834;9.132;2023-04-23T04:37:32;97630.03;;;13.04;85.25
15694;BME280;7947;48.834;9.132;2023-04-23T04:40:35;97638.78;;;12.96;85.16
15694;BME280;7947;48.834;9.132;2023-04-23T04:43:39;97632.97;;;12.89;86.34
15694;BME280;7947;48.834;9.132;2023-04-23T04:46:44;97627.41;;;12.86;86.89
15694;BME280;7947;48.834;9.132;2023-04-23T04:49:48;97636.09;;;12.83;87.71
15694;BME280;7947;48.834;9.132;2023-04-23T04:52:51;97633.91;;;12.85;87.72
15694;BME280;7947;48.834;9.132;2023-04-23T04:55:53;97638.59;;;12.79;87.90
15694;BME280;7947;48.834;9.132;2023-04-23T04:58:57;97635.22;;;12.74;88.94
15694;BME280;7947;48.834;9.132;2023-04-23T05:02:00;97628.63;;;12.80;89.44
15694;BME280;7947;48.834;9.132;2023-04-23T05:05:04;97629.03;;;12.73;89.24
15694;BME280;7947;48.834;9.132;2023-04-23T05:08:07;97627.94;;;12.60;90.32
15694;BME280;7947;48.834;9.132;2023-04-23T05:11:10;97618.47;;;12.63;90.08
15694;BME280;7947;48.834;9.132;2023-04-23T05:14:14;97623.84;;;12.63;90.87
15694;BME280;7947;48.834;9.132;2023-04-23T05:17:17;97623.47;;;12.69;91.33
15694;BME280;7947;48.834;9.132;2023-04-23T05:20:20;97631.81;;;12.82;91.79
15694;BME280;7947;48.834;9.132;2023-04-23T05:23:23;97629.53;;;12.89;91.71
15694;BME280;7947;48.834;9.132;2023-04-23T05:26:26;97632.19;;;13.02;91.81
15694;BME280;7947;48.834;9.132;2023-04-23T05:29:30;97626.91;;;13.11;92.43
15694;BME280;7947;48.834;9.132;2023-04-23T05:32:33;97639.97;;;13.17;92.08
15694;BME280;7947;48.834;9.132;2023-04-23T05:35:35;97634.94;;;13.24;92.44
15694;BME280;7947;48.834;9.132;2023-04-23T05:38:38;97637.53;;;13.29;92.41
15694;BME280;7947;48.834;9.132;2023-04-23T05:41:42;97631.22;;;13.34;92.56
15694;BME280;7947;48.834;9.132;2023-04-23T05:44:46;97627.44;;;13.35;93.45
15694;BME280;7947;48.834;9.132;2023-04-23T05:47:49;97632.69;;;13.40;93.36
15694;BME280;7947;48.834;9.132;2023-04-23T05:50:52;97648.16;;;13.48;93.72
15694;BME280;7947;48.834;9.132;2023-04-23T05:53:55;97646.44;;;13.52;93.51
15694;BME280;7947;48.834;9.132;2023-04-23T05:56:58;97642.03;;;13.56;93.25
15694;BME280;7947;48.834;9.132;2023-04-23T06:00:03;97639.69;;;13.63;93.13
15694;BME280;7947;48.834;9.132;2023-04-23T06:03:07;97641.97;;;13.70;92.46
15694;BME280;7947;48.834;9.132;2023-04-23T06:06:10;97641.66;;;13.71;91.56
15694;BME280;7947;48.834;9.132;2023-04-23T06:09:13;97643.75;;;13.74;91.17
15694;BME280;7947;48.834;9.132;2023-04-23T06:12:16;97632.84;;;13.79;90.70
15694;BME280;7947;48.834;9.132;2023-04-23T06:15:21;97629.72;;;13.86;90.44
15694;BME280;7947;48.834;9.132;2023-04-23T06:18:27;97636.00;;;14.03;90.42
15694;BME280;7947;48.834;9.132;2023-04-23T06:21:30;97642.75;;;14.14;89.55
15694;BME280;7947;48.834;9.132;2023-04-23T06:24:33;97636.13;;;14.20;88.33
15694;BME280;7947;48.834;9.132;2023-04-23T06:27:35;97629.59;;;14.21;87.71
15694;BME280;7947;48.834;9.132;2023-04-23T06:30:40;97633.28;;;14.25;87.65
15694;BME280;7947;48.834;9.132;2023-04-23T06:33:42;97630.94;;;14.32;87.22
15694;BME280;7947;48.834;9.132;2023-04-23T06:36:45;97630.19;;;14.40;87.40
15694;BME280;7947;48.834;9.132;2023-04-23T06:39:48;97633.25;;;14.48;87.34
15694;BME280;7947;48.834;9.132;2023-04-23T06:42:51;97636.28;;;14.55;86.76
15694;BME280;7947;48.834;9.132;2023-04-23T06:45:55;97627.09;;;14.64;86.42
15694;BME280;7947;48.834;9.132;2023-04-23T06:48:57;97623.47;;;14.69;84.32
15694;BME280;7947;48.834;9.132;2023-04-23T06:52:00;97617.28;;;14.68;82.59
15694;BME280;7947;48.834;9.132;2023-04-23T06:55:04;97616.84;;;14.75;82.38
15694;BME280;7947;48.834;9.132;2023-04-23T06:58:07;97611.44;;;14.83;81.09
15694;BME280;7947;48.834;9.132;2023-04-23T07:01:11;97606.38;;;14.90;80.04
15694;BME280;7947;48.834;9.132;2023-04-23T07:04:15;97605.25;;;14.91;79.76
15694;BME280;7947;48.834;9.132;2023-04-23T07:07:17;97608.34;;;15.15;79.58
15694;BME280;7947;48.834;9.132;2023-04-23T07:10:21;97603.88;;;15.36;78.37
15694;BME280;7947;48.834;9.132;2023-04-23T07:13:23;97606.59;;;15.79;77.51
15694;BME280;7947;48.834;9.132;2023-04-23T07:16:29;97601.91;;;15.97;75.97
15694;BME280;7947;48.834;9.132;2023-04-23T07:19:34;97598.66;;;16.29;74.34
15694;BME280;7947;48.834;9.132;2023-04-23T07:22:36;97596.47;;;16.60;73.37
15694;BME280;7947;48.834;9.132;2023-04-23T07:25:39;97601.31;;;16.84;71.91
15694;BME280;7947;48.834;9.132;2023-04-23T07:28:42;97597.75;;;17.12;71.28
15694;BME280;7947;48.834;9.132;2023-04-23T07:31:48;97595.97;;;17.37;69.15
15694;BME280;7947;48.834;9.132;2023-04-23T07:34:50;97590.56;;;17.58;68.62
15694;BME280;7947;48.834;9.132;2023-04-23T07:37:53;97590.78;;;17.85;66.04
15694;BME280;7947;48.834;9.132;2023-04-23T07:40:58;97590.44;;;17.87;64.38
15694;BME280;7947;48.834;9.132;2023-04-23T07:44:01;97587.38;;;17.56;65.35
15694;BME280;7947;48.834;9.132;2023-04-23T07:47:05;97580.22;;;17.31;66.39
15694;BME280;7947;48.834;9.132;2023-04-23T07:50:09;97588.56;;;17.05;69.06
15694;BME280;7947;48.834;9.132;2023-04-23T07:53:12;97587.94;;;16.79;68.56
15694;BME280;7947;48.834;9.132;2023-04-23T07:56:14;97580.38;;;16.64;67.91
15694;BME280;7947;48.834;9.132;2023-04-23T07:59:17;97576.31;;;16.41;68.63
15694;BME280;7947;48.834;9.132;2023-04-23T08:02:22;97582.88;;;16.31;70.50
15694;BME280;7947;48.834;9.132;2023-04-23T08:05:27;97580.22;;;16.22;70.94
15694;BME280;7947;48.834;9.132;2023-04-23T08:08:30;97582.91;;;16.22;70.77
15694;BME280;7947;48.834;9.132;2023-04-23T08:11:32;97577.50;;;16.22;69.03
15694;BME280;7947;48.834;9.132;2023-04-23T08:14:35;97572.09;;;16.22;69.72
15694;BME280;7947;48.834;9.132;2023-04-23T08:17:39;97563.81;;;16.27;70.86
15694;BME280;7947;48.834;9.132;2023-04-23T08:20:42;97557.44;;;16.61;68.23
15694;BME280;7947;48.834;9.132;2023-04-23T08:23:45;97552.22;;;16.85;66.56
15694;BME280;7947;48.834;9.132;2023-04-23T08:26:48;97554.31;;;17.21;66.66
15694;BME280;7947;48.834;9.132;2023-04-23T08:29:51;97565.22;;;17.33;67.04
15694;BME280;7947;48.834;9.132;2023-04-23T08:32:56;97555.66;;;17.36;62.24
15694;BME280;7947;48.834;9.132;2023-04-23T08:35:58;97559.91;;;17.25;61.43
15694;BME280;7947;48.834;9.132;2023-04-23T08:39:01;97548.66;;;17.14;63.62
15694;BME280;7947;48.834;9.132;2023-04-23T08:42:09;97549.63;;;16.89;64.42
15694;BME280;7947;48.834;9.132;2023-04-23T08:45:13;97544.00;;;16.73;65.38
15694;BME280;7947;48.834;9.132;2023-04-23T08:48:18;97549.97;;;16.87;66.26
15694;BME280;7947;48.834;9.132;2023-04-23T08:51:23;97547.31;;;16.99;64.94
15694;BME280;7947;48.834;9.132;2023-04-23T08:54:27;97550.91;;;17.12;65.09
15694;BME280;7947;48.834;9.132;2023-04-23T08:57:34;97545.88;;;17.23;64.64
15694;BME280;7947;48.834;9.132;2023-04-23T09:00:37;97536.69;;;17.36;63.72
15694;BME280;7947;48.834;9.132;2023-04-23T09:03:41;97535.09;;;17.67;63.05
15694;BME280;7947;48.834;9.132;2023-04-23T09:06:44;97528.50;;;17.89;59.48
15694;BME280;7947;48.834;9.132;2023-04-23T09:09:47;97527.53;;;18.06;62.37
15694;BME280;7947;48.834;9.132;2023-04-23T09:13:11;97524.47;;;18.31;61.30
15694;BME280;7947;48.834;9.132;2023-04-23T09:16:14;97518.94;;;18.40;57.94
15694;BME280;7947;48.834;9.132;2023-04-23T09:19:19;97514.19;;;18.49;59.58
15694;BME280;7947;48.834;9.132;2023-04-23T09:22:38;97504.50;;;18.48;59.66
15694;BME280;7947;48.834;9.132;2023-04-23T09:25:41;97503.56;;;18.32;58.50
15694;BME280;7947;48.834;9.132;2023-04-23T09:28:47;97501.31;;;18.10;59.70
15694;BME280;7947;48.834;9.132;2023-04-23T09:31:52;97505.09;;;17.72;60.16
15694;BME280;7947;48.834;9.132;2023-04-23T09:34:57;97498.78;;;17.48;61.26
15694;BME280;7947;48.834;9.132;2023-04-23T09:38:00;97487.06;;;17.56;63.10
15694;BME280;7947;48.834;9.132;2023-04-23T09:41:22;97481.34;;;17.81;60.63
15694;BME280;7947;48.834;9.132;2023-04-23T09:44:25;97483.53;;;17.88;61.11
15694;BME280;7947;48.834;9.132;2023-04-23T09:47:31;97475.47;;;17.79;60.19
15694;BME280;7947;48.834;9.132;2023-04-23T09:50:38;97473.78;;;17.75;61.34
15694;BME280;7947;48.834;9.132;2023-04-23T09:53:42;97466.88;;;17.77;59.62
15694;BME280;7947;48.834;9.132;2023-04-23T09:56:48;97461.38;;;17.86;59.28
15694;BME280;7947;48.834;9.132;2023-04-23T09:59:51;97465.09;;;17.93;59.43
15694;BME280;7947;48.834;9.132;2023-04-23T10:03:11;97462.97;;;18.11;57.27
15694;BME280;7947;48.834;9.132;2023-04-23T10:06:16;97454.94;;;18.15;58.11
15694;BME280;7947;48.834;9.132;2023-04-23T10:09:39;97451.88;;;18.16;58.17
15694;BME280;7947;48.834;9.132;2023-04-23T10:12:44;97448.81;;;18.18;58.37
15694;BME280;7947;48.834;9.132;2023-04-23T10:15:55;97436.16;;;18.10;56.68
15694;BME280;7947;48.834;9.132;2023-04-23T10:19:13;97434.34;;;18.01;56.43
15694;BME280;7947;48.834;9.132;2023-04-23T10:22:20;97433.66;;;18.04;56.64
15694;BME280;7947;48.834;9.132;2023-04-23T10:25:23;97437.28;;;17.96;55.36
15694;BME280;7947;48.834;9.132;2023-04-23T10:28:28;97432.63;;;17.85;56.44
15694;BME280;7947;48.834;9.132;2023-04-23T10:31:32;97430.38;;;17.87;53.95
15694;BME280;7947;48.834;9.132;2023-04-23T10:34:38;97425.41;;;17.89;52.27
15694;BME280;7947;48.834;9.132;2023-04-23T10:37:43;97413.66;;;17.97;50.67
15694;BME280;7947;48.834;9.132;2023-04-23T10:40:48;97414.22;;;18.15;49.31
15694;BME280;7947;48.834;9.132;2023-04-23T10:43:52;97407.44;;;18.21;49.37
15694;BME280;7947;48.834;9.132;2023-04-23T10:46:57;97403.56;;;18.34;48.31
15694;BME280;7947;48.834;9.132;2023-04-23T10:50:17;97398.94;;;18.46;47.54
15694;BME280;7947;48.834;9.132;2023-04-23T10:53:21;97394.16;;;18.55;46.04
15694;BME280;7947;48.834;9.132;2023-04-23T10:56:26;97387.44;;;18.65;47.74
15694;BME280;7947;48.834;9.132;2023-04-23T10:59:32;97388.53;;;18.76;48.19
15694;BME280;7947;48.834;9.132;2023-04-23T11:02:42;97393.66;;;18.93;45.35
15694;BME280;7947;48.834;9.132;2023-04-23T11:05:45;97384.66;;;18.89;44.92
15694;BME280;7947;48.834;9.132;2023-04-23T11:08:54;97385.47;;;19.05;44.24
15694;BME280;7947;48.834;9.132;2023-04-23T11:11:58;97377.19;;;19.29;43.55
15694;BME280;7947;48.834;9.132;2023-04-23T11:15:12;97372.84;;;19.56;43.91
15694;BME280;7947;48.834;9.132;2023-04-23T11:18:15;97367.41;;;19.71;45.35
15694;BME280;7947;48.834;9.132;2023-04-23T11:21:18;97373.34;;;19.93;42.03
15694;BME280;7947;48.834;9.132;2023-04-23T11:24:22;97374.06;;;19.90;43.50
15694;BME280;7947;48.834;9.132;2023-04-23T11:27:25;97369.84;;;19.76;41.54
15694;BME280;7947;48.834;9.132;2023-04-23T11:30:30;97373.88;;;19.51;42.86
15694;BME280;7947;48.834;9.132;2023-04-23T11:33:34;97362.69;;;19.37;45.15
15694;BME280;7947;48.834;9.132;2023-04-23T11:36:38;97344.75;;;19.36;45.56
15694;BME280;7947;48.834;9.132;2023-04-23T11:39:43;97342.56;;;19.42;45.29
15694;BME280;7947;48.834;9.132;2023-04-23T11:42:49;97348.88;;;19.46;45.72
15694;BME280;7947;48.834;9.132;2023-04-23T11:45:53;97333.38;;;19.46;45.41
15694;BME280;7947;48.834;9.132;2023-04-23T11:48:58;97328.00;;;19.65;45.01
15694;BME280;7947;48.834;9.132;2023-04-23T11:52:02;97316.38;;;19.84;43.22
15694;BME280;7947;48.834;9.132;2023-04-23T11:55:06;97314.34;;;19.97;43.89
15694;BME280;7947;48.834;9.132;2023-04-23T11:58:09;97310.09;;;20.15;41.54
15694;BME280;7947;48.834;9.132;2023-04-23T12:01:12;97311.06;;;20.22;40.85
15694;BME280;7947;48.834;9.132;2023-04-23T12:04:18;97296.38;;;20.46;42.20
15694;BME280;7947;48.834;9.132;2023-04-23T12:07:30;97304.47;;;20.81;40.50
15694;BME280;7947;48.834;9.132;2023-04-23T12:10:41;97288.75;;;20.74;40.56
15694;BME280;7947;48.834;9.132;2023-04-23T12:13:44;97285.28;;;20.77;41.94
15694;BME280;7947;48.834;9.132;2023-04-23T12:16:47;97285.88;;;20.86;40.40
15694;BME280;7947;48.834;9.132;2023-04-23T12:19:52;97276.56;;;20.68;39.06
15694;BME280;7947;48.834;9.132;2023-04-23T12:23:03;97280.00;;;20.27;40.66
15694;BME280;7947;48.834;9.132;2023-04-23T12:26:10;97262.59;;;20.31;40.79
15694;BME280;7947;48.834;9.132;2023-04-23T12:29:16;97266.41;;;20.46;43.08
15694;BME280;7947;48.834;9.132;2023-04-23T12:32:23;97250.16;;;20.30;42.48
15694;BME280;7947;48.834;9.132;2023-04-23T12:35:37;97254.75;;;20.26;44.03
15694;BME280;7947;48.834;9.132;2023-04-23T12:38:40;97244.84;;;20.37;44.65
15694;BME280;7947;48.834;9.132;2023-04-23T12:41:45;97237.94;;;20.62;42.08
15694;BME280;7947;48.834;9.132;2023-04-23T12:44:48;97228.19;;;20.84;42.32
15694;BME280;7947;48.834;9.132;2023-04-23T12:47:52;97227.44;;;21.29;41.85
15694;BME280;7947;48.834;9.132;2023-04-23T12:50:55;97221.66;;;21.60;41.02
15694;BME280;7947;48.834;9.132;2023-04-23T12:53:58;97219.56;;;21.50;41.11
15694;BME280;7947;48.834;9.132;2023-04-23T12:57:03;97214.22;;;21.08;41.92
15694;BME280;7947;48.834;9.132;2023-04-23T13:00:07;97214.94;;;20.83;41.83
15694;BME280;7947;48.834;9.132;2023-04-23T13:03:11;97207.91;;;20.59;43.64
15694;BME280;7947;48.834;9.132;2023-04-23T13:06:16;97200.31;;;20.72;44.23
15694;BME280;7947;48.834;9.132;2023-04-23T13:09:19;97199.41;;;20.64;44.92
15694;BME280;7947;48.834;9.132;2023-04-23T13:12:23;97193.16;;;20.63;44.49
15694;BME280;7947;48.834;9.132;2023-04-23T13:15:26;97176.53;;;20.68;45.48
15694;BME280;7947;48.834;9.132;2023-04-23T13:18:29;97167.31;;;20.99;45.33
15694;BME280;7947;48.834;9.132;2023-04-23T13:21:32;97154.56;;;21.03;42.17
15694;BME280;7947;48.834;9.132;2023-04-23T13:24:35;97163.97;;;20.87;42.97
15694;BME280;7947;48.834;9.132;2023-04-23T13:27:39;97153.09;;;21.09;43.68
15694;BME280;7947;48.834;9.132;2023-04-23T13:30:42;97144.31;;;21.49;40.04
15694;BME280;7947;48.834;9.132;2023-04-23T13:33:45;97139.13;;;21.96;36.67
15694;BME280;7947;48.834;9.132;2023-04-23T13:36:47;97134.97;;;22.09;36.31
15694;BME280;7947;48.834;9.132;2023-04-23T13:39:50;97126.91;;;22.20;36.38
15694;BME280;7947;48.834;9.132;2023-04-23T13:42:55;97115.75;;;22.35;36.06
15694;BME280;7947;48.834;9.132;2023-04-23T13:45:58;97103.25;;;22.38;37.25
15694;BME280;7947;48.834;9.132;2023-04-23T13:49:02;97115.63;;;22.25;36.16
15694;BME280;7947;48.834;9.132;2023-04-23T13:52:05;97114.19;;;22.38;35.72
15694;BME280;7947;48.834;9.132;2023-04-23T13:55:09;97099.59;;;22.60;35.96
15694;BME280;7947;48.834;9.132;2023-04-23T13:58:14;97098.28;;;22.47;33.65
15694;BME280;7947;48.834;9.132;2023-04-23T14:01:16;97081.47;;;22.45;34.71
15694;BME280;7947;48.834;9.132;2023-04-23T14:04:20;97087.91;;;22.63;34.82
15694;BME280;7947;48.834;9.132;2023-04-23T14:07:24;97078.38;;;22.50;34.54
15694;BME280;7947;48.834;9.132;2023-04-23T14:10:27;97072.03;;;22.79;32.92
15694;BME280;7947;48.834;9.132;2023-04-23T14:13:31;97076.63;;;22.68;33.74
15694;BME280;7947;48.834;9.132;2023-04-23T14:16:34;97069.97;;;22.66;33.10
15694;BME280;7947;48.834;9.132;2023-04-23T14:19:37;97070.00;;;22.73;32.91
15694;BME280;7947;48.834;9.132;2023-04-23T14:22:40;97063.72;;;22.69;31.04
15694;BME280;7947;48.834;9.132;2023-04-23T14:25:45;97054.34;;;22.63;31.98
15694;BME280;7947;48.834;9.132;2023-04-23T14:28:50;97044.09;;;22.56;31.65
15694;BME280;7947;48.834;9.132;2023-04-23T14:31:53;97048.34;;;22.54;33.15
15694;BME280;7947;48.834;9.132;2023-04-23T14:34:56;97034.81;;;22.64;33.61
15694;BME280;7947;48.834;9.132;2023-04-23T14:37:59;97023.94;;;22.71;32.76
15694;BME280;7947;48.834;9.132;2023-04-23T14:41:02;97023.50;;;22.69;32.43
15694;BME280;7947;48.834;9.132;2023-04-23T14:44:06;97025.34;;;22.55;32.00
15694;BME280;7947;48.834;9.132;2023-04-23T14:47:09;97024.84;;;22.42;33.28
15694;BME280;7947;48.834;9.132;2023-04-23T14:50:13;97011.13;;;22.35;31.90
15694;BME280;7947;48.834;9.132;2023-04-23T14:53:17;97014.09;;;22.16;32.96
15694;BME280;7947;48.834;9.132;2023-04-23T14:56:20;97026.28;;;21.85;33.42
15694;BME280;7947;48.834;9.132;2023-04-23T14:59:24;97002.63;;;21.63;33.48
15694;BME280;7947;48.834;9.132;2023-04-23T15:02:27;97000.84;;;21.44;34.96
15694;BME280;7947;48.834;9.132;2023-04-23T15:05:30;97006.09;;;21.27;35.59
15694;BME280;7947;48.834;9.132;2023-04-23T15:08:33;97020.69;;;21.12;34.61
15694;BME280;7947;48.834;9.132;2023-04-23T15:11:36;97018.63;;;21.02;34.31
15694;BME280;7947;48.834;9.132;2023-04-23T15:14:42;97022.66;;;20.89;35.82
15694;BME280;7947;48.834;9.132;2023-04-23T15:17:45;97015.25;;;20.86;36.77
15694;BME280;7947;48.834;9.132;2023-04-23T15:20:48;97006.22;;;20.82;36.83
15694;BME280;7947;48.834;9.132;2023-04-23T15:23:51;97009.63;;;20.75;36.79
15694;BME280;7947;48.834;9.132;2023-04-23T15:26:56;96997.75;;;20.60;36.89
15694;BME280;7947;48.834;9.132;2023-04-23T15:30:01;97005.69;;;20.46;37.14
15694;BME280;7947;48.834;9.132;2023-04-23T15:33:04;97006.41;;;20.40;37.44
15694;BME280;7947;48.834;9.132;2023-04-23T15:36:07;97005.22;;;20.41;38.66
15694;BME280;7947;48.834;9.132;2023-04-23T15:39:10;97012.38;;;20.49;39.46
15694;BME280;7947;48.834;9.132;2023-04-23T15:42:13;97011.84;;;20.40;39.96
15694;BME280;7947;48.834;9.132;2023-04-23T15:45:19;97022.50;;;20.52;40.68
15694;BME280;7947;48.834;9.132;2023-04-23T15:48:23;97048.38;;;20.39;41.11
15694;BME280;7947;48.834;9.132;2023-04-23T15:51:27;97052.22;;;20.15;43.95
15694;BME280;7947;48.834;9.132;2023-04-23T15:54:32;97042.78;;;19.67;53.38
15694;BME280;7947;48.834;9.132;2023-04-23T15:57:35;97016.03;;;19.31;53.78
15694;BME280;7947;48.834;9.132;2023-04-23T16:00:39;97020.88;;;19.03;55.95
15694;BME280;7947;48.834;9.132;2023-04-23T16:03:42;97024.53;;;18.76;58.21
15694;BME280;7947;48.834;9.132;2023-04-23T16:07:04;97021.09;;;18.44;58.00
15694;BME280;7947;48.834;9.132;2023-04-23T16:10:08;97027.81;;;18.35;56.93
15694;BME280;7947;48.834;9.132;2023-04-23T16:13:11;97020.38;;;18.16;58.97
15694;BME280;7947;48.834;9.132;2023-04-23T16:16:16;97023.78;;;18.13;57.87
15694;BME280;7947;48.834;9.132;2023-04-23T16:19:19;97033.03;;;17.96;59.11
15694;BME280;7947;48.834;9.132;2023-04-23T16:22:21;97026.31;;;17.75;60.15
15694;BME280;7947;48.834;9.132;2023-04-23T16:25:26;97036.97;;;17.83;60.44
15694;BME280;7947;48.834;9.132;2023-04-23T16:28:28;97043.28;;;17.87;59.68